Time;durP1;ratioP1;P1;durP2;ratioP2;P2;SDS_P1;SDS_P2;PMS_P1;PMS_P2;Temp;Humidity;BMP_temperature;BMP_pressure;BME280_temperature;BME280_humidity;BME280_pressure;Samples;Min_cycle;Max_cycle;Signal;HPM_P1;HPM_P2
2021/10/02 00:35:07;;;;;;;8.55;1.73;;;;;;;-149.78;100.00;50359.97;4841609;29;20042;-74
2021/10/02 00:37:48;;;;;;;7.65;1.85;;;;;;;-149.78;100.00;50303.25;4826615;29;20046;-74
2021/10/02 00:45:42;;;;;;;4.75;1.65;;;;;;;-149.78;100.00;50389.31;4839978;29;20031;-74
2021/10/02 00:48:09;;;;;;;7.47;1.45;;;;;;;-149.78;100.00;50385.38;4835976;29;20136;-74
2021/10/02 00:50:36;;;;;;;16.35;1.90;;;;;;;-149.78;100.00;50354.09;4826498;29;20049;-74
2021/10/02 00:53:01;;;;;;;9.25;2.28;;;;;;;-149.78;100.00;50340.41;4842895;29;20037;-74
2021/10/02 00:55:28;;;;;;;5.15;1.50;;;;;;;-149.78;100.00;50326.72;4842302;29;20045;-74
2021/10/02 00:57:54;;;;;;;12.40;1.92;;;;;;;-149.78;100.00;50346.28;4826293;29;20186;-74
2021/10/02 01:00:25;;;;;;;6.32;1.67;;;;;;;-149.78;100.00;50369.75;4826777;29;20128;-74
2021/10/02 01:03:16;;;;;;;7.78;1.85;;;;;;;-149.78;100.00;50361.91;4840314;29;20034;-75
2021/10/02 01:06:00;;;;;;;7.45;1.95;;;;;;;-149.78;100.00;50342.38;4810138;29;20030;-74
2021/10/02 01:08:28;;;;;;;8.77;1.65;;;;;;;-149.78;100.00;50393.22;4838525;29;20569;-74
2021/10/02 01:11:24;;;;;;;9.95;1.75;;;;;;;-149.78;100.00;50358.00;4837941;29;20064;-74
2021/10/02 01:14:02;;;;;;;7.55;1.95;;;;;;;-149.78;100.00;50354.09;4837988;29;20030;-74
2021/10/02 01:16:36;;;;;;;12.65;1.60;;;;;;;-149.78;100.00;50381.47;4829275;29;20035;-74
2021/10/02 01:19:31;;;;;;;11.65;1.98;;;;;;;-149.78;100.00;50389.31;4837559;29;20038;-74
2021/10/02 01:22:28;;;;;;;8.60;1.80;;;;;;;-149.78;100.00;50346.28;4838800;29;20054;-74
2021/10/02 01:25:20;;;;;;;8.13;1.83;;;;;;;-149.78;100.00;50354.09;4842633;29;20044;-75
2021/10/02 01:28:07;;;;;;;6.10;1.73;;;;;;;-149.78;100.00;50395.16;4838436;29;20042;-74
2021/10/02 01:33:24;;;;;;;14.70;2.13;;;;;;;-149.78;100.00;50369.75;4841240;29;20080;-74
2021/10/02 01:36:03;;;;;;;4.68;1.40;;;;;;;-149.78;100.00;50350.19;4827078;29;20487;-75
2021/10/02 01:49:34;;;;;;;12.75;1.95;;;;;;;-149.78;100.00;50361.91;4834628;29;20399;-74
2021/10/02 01:52:00;;;;;;;10.15;1.98;;;;;;;-149.78;100.00;50373.66;4843198;29;20091;-74
2021/10/02 01:54:29;;;;;;;12.25;1.92;;;;;;;-149.78;100.00;50377.56;4842237;29;20038;-74
2021/10/02 01:56:56;;;;;;;6.97;1.50;;;;;;;-149.78;100.00;50371.69;4834302;29;20034;-74
2021/10/02 01:59:24;;;;;;;9.15;2.17;;;;;;;-149.78;100.00;50373.66;4836253;29;20087;-73
2021/10/02 02:01:51;;;;;;;11.32;1.67;;;;;;;-149.78;100.00;50356.06;4842719;29;20374;-74
2021/10/02 02:04:18;;;;;;;12.43;2.22;;;;;;;-149.78;100.00;50377.56;4825744;29;20407;-74
2021/10/02 02:06:47;;;;;;;15.52;1.70;;;;;;;-149.78;100.00;50379.53;4825059;29;20126;-74
2021/10/02 02:09:15;;;;;;;5.90;2.00;;;;;;;-149.78;100.00;50373.66;4839968;29;20041;-74
2021/10/02 02:11:43;;;;;;;9.00;1.70;;;;;;;-149.78;100.00;50346.28;4826901;29;20416;-74
2021/10/02 02:14:12;;;;;;;15.05;2.40;;;;;;;-149.78;100.00;50377.56;4823593;29;20033;-74
2021/10/02 02:16:39;;;;;;;7.55;1.45;;;;;;;-149.78;100.00;50385.38;4842952;29;20033;-74
2021/10/02 02:19:06;;;;;;;6.80;1.65;;;;;;;-149.78;100.00;50373.66;4841079;29;20038;-74
2021/10/02 02:21:32;;;;;;;9.73;1.70;;;;;;;-149.78;100.00;50428.41;4822202;29;20499;-74
2021/10/02 02:23:59;;;;;;;14.70;2.22;;;;;;;-149.78;100.00;50350.19;4817321;29;20531;-74
2021/10/02 02:26:28;;;;;;;11.15;2.00;;;;;;;-149.78;100.00;50408.84;4841371;29;20038;-74
2021/10/02 02:28:56;;;;;;;6.10;2.50;;;;;;;-149.78;100.00;50346.28;4840233;29;20128;-74
2021/10/02 02:31:22;;;;;;;5.53;1.30;;;;;;;-149.78;100.00;50385.38;4839719;29;20112;-74
2021/10/02 02:33:48;;;;;;;10.45;2.45;;;;;;;-149.78;100.00;50375.63;4826004;29;20133;-74
2021/10/02 02:36:14;;;;;;;12.45;2.17;;;;;;;-149.78;100.00;50412.78;4841083;29;20041;-74
2021/10/02 02:38:39;;;;;;;8.15;2.05;;;;;;;-149.78;100.00;50385.38;4839580;29;20049;-73
2021/10/02 02:41:05;;;;;;;7.30;2.10;;;;;;;-149.78;100.00;50379.53;4841409;29;20049;-74
2021/10/02 02:43:34;;;;;;;16.65;2.35;;;;;;;-149.78;100.00;50393.22;4831944;29;20034;-73
2021/10/02 02:46:08;;;;;;;13.00;2.17;;;;;;;-149.78;100.00;50350.19;4835815;29;20030;-74
2021/10/02 02:48:39;;;;;;;8.32;1.63;;;;;;;-149.78;100.00;50373.66;4824583;29;20058;-74
2021/10/02 02:51:17;;;;;;;8.85;2.20;;;;;;;-149.78;100.00;50365.84;4842058;29;20089;-74
2021/10/02 02:53:52;;;;;;;12.98;2.58;;;;;;;-149.78;100.00;50365.84;4823006;29;20030;-74
2021/10/02 02:56:24;;;;;;;7.78;1.90;;;;;;;-149.78;100.00;50350.19;4833844;29;20398;-74
2021/10/02 02:58:52;;;;;;;11.10;2.00;;;;;;;-149.78;100.00;50381.47;4821278;29;20423;-74
2021/10/02 03:01:20;;;;;;;8.07;1.90;;;;;;;-149.78;100.00;50403.00;4842132;29;20033;-74
2021/10/02 03:03:49;;;;;;;13.73;3.33;;;;;;;-149.78;100.00;50338.44;4833642;29;20025;-74
2021/10/02 03:06:15;;;;;;;4.43;1.77;;;;;;;-149.78;100.00;50373.66;4837632;29;20026;-74
2021/10/02 03:08:47;;;;;;;9.32;1.95;;;;;;;-149.78;100.00;50361.91;4814730;29;20078;-74
2021/10/02 03:11:17;;;;;;;9.05;1.90;;;;;;;-149.78;100.00;50404.94;4837694;29;20037;-74
2021/10/02 03:13:44;;;;;;;11.70;2.22;;;;;;;-149.78;100.00;50381.47;4841064;29;20140;-74
2021/10/02 03:16:13;;;;;;;12.25;3.38;;;;;;;-149.78;100.00;50397.13;4833242;29;20035;-74
2021/10/02 03:18:43;;;;;;;11.55;2.38;;;;;;;-149.78;100.00;50385.38;4841185;29;20594;-74
2021/10/02 03:21:11;;;;;;;8.25;2.08;;;;;;;-149.78;100.00;50369.75;4824519;29;20034;-74
2021/10/02 03:23:38;;;;;;;7.03;1.77;;;;;;;-149.78;100.00;50346.28;4841599;29;20069;-74
2021/10/02 03:26:04;;;;;;;15.10;2.38;;;;;;;-149.78;100.00;50414.72;4840978;29;20073;-74
2021/10/02 03:28:31;;;;;;;13.98;2.38;;;;;;;-149.78;100.00;50373.66;4836437;29;20053;-74
2021/10/02 03:30:59;;;;;;;10.45;2.40;;;;;;;-149.78;100.00;50385.38;4834435;29;20034;-74
2021/10/02 03:33:26;;;;;;;7.32;2.20;;;;;;;-149.78;100.00;50361.91;4838974;29;20475;-74
2021/10/02 03:35:52;;;;;;;9.07;2.03;;;;;;;-149.78;100.00;50408.84;4840271;29;20145;-74
2021/10/02 03:38:18;;;;;;;9.68;1.83;;;;;;;-149.78;100.00;50361.91;4843206;29;20034;-73
2021/10/02 03:40:43;;;;;;;13.77;2.22;;;;;;;-149.78;100.00;50369.75;4828001;29;20045;-74
2021/10/02 03:43:09;;;;;;;7.15;1.95;;;;;;;-149.78;100.00;50393.22;4844175;29;20034;-74
2021/10/02 03:45:36;;;;;;;12.02;2.08;;;;;;;-149.78;100.00;50387.34;4828049;29;20121;-74
2021/10/02 03:48:03;;;;;;;8.50;2.00;;;;;;;-149.78;100.00;50383.44;4840191;29;20030;-74
2021/10/02 03:50:30;;;;;;;15.02;2.08;;;;;;;-149.78;100.00;50358.00;4827141;29;20094;-74
2021/10/02 03:52:56;;;;;;;13.13;2.15;;;;;;;-149.78;100.00;50377.56;4832450;29;20130;-74
2021/10/02 03:55:21;;;;;;;16.45;2.20;;;;;;;-149.78;100.00;50356.06;4836334;29;20112;-74
2021/10/02 03:57:47;;;;;;;10.38;2.65;;;;;;;-149.78;100.00;50389.31;4821506;29;20141;-75
2021/10/02 04:00:14;;;;;;;10.75;2.33;;;;;;;-149.78;100.00;50391.25;4837099;29;20062;-75
2021/10/02 04:02:41;;;;;;;11.88;2.28;;;;;;;-149.78;100.00;50369.75;4823326;29;20033;-74
2021/10/02 04:05:07;;;;;;;18.15;2.40;;;;;;;-149.78;100.00;50359.97;4837709;29;20030;-74
2021/10/02 04:07:33;;;;;;;15.05;3.25;;;;;;;-149.78;100.00;50385.38;4838300;29;20034;-74
2021/10/02 04:10:00;;;;;;;9.93;1.75;;;;;;;-149.78;100.00;50377.56;4843146;29;20111;-74
2021/10/02 04:12:25;;;;;;;5.90;2.13;;;;;;;-149.78;100.00;50365.84;4826609;29;20042;-74
2021/10/02 04:14:51;;;;;;;8.48;1.92;;;;;;;-149.78;100.00;50393.22;4844275;29;20050;-74
2021/10/02 04:17:17;;;;;;;13.35;2.08;;;;;;;-149.78;100.00;50369.75;4840420;29;20037;-74
2021/10/02 04:19:43;;;;;;;11.98;2.30;;;;;;;-149.78;100.00;50389.31;4824460;29;20435;-74
2021/10/02 04:22:10;;;;;;;15.10;2.20;;;;;;;-149.78;100.00;50361.91;4830276;29;20042;-74
2021/10/02 04:24:40;;;;;;;9.68;2.10;;;;;;;-149.78;100.00;50358.00;4826046;29;20066;-74
2021/10/02 04:27:08;;;;;;;8.50;2.00;;;;;;;-149.78;100.00;50377.56;4825019;29;20048;-74
2021/10/02 04:29:34;;;;;;;9.63;2.10;;;;;;;-149.78;100.00;50379.53;4843612;29;20046;-74
2021/10/02 04:31:59;;;;;;;7.88;1.90;;;;;;;-149.78;100.00;50389.31;4812766;29;20495;-74
2021/10/02 04:34:25;;;;;;;11.55;2.60;;;;;;;-149.78;100.00;50406.91;4818705;29;20053;-74
2021/10/02 04:36:51;;;;;;;11.50;2.13;;;;;;;-149.78;100.00;50395.16;4821923;29;20059;-74
2021/10/02 04:39:18;;;;;;;6.97;2.55;;;;;;;-149.78;100.00;50385.38;4815894;29;20053;-74
2021/10/02 04:41:43;;;;;;;15.68;2.30;;;;;;;-149.78;100.00;50354.09;4842365;29;20030;-74
2021/10/02 04:44:09;;;;;;;11.32;2.30;;;;;;;-149.78;100.00;50387.34;4835675;29;20509;-74
2021/10/02 04:46:40;;;;;;;12.88;2.15;;;;;;;-149.78;100.00;50350.19;4843755;29;20040;-74
2021/10/02 04:49:09;;;;;;;8.43;2.25;;;;;;;-149.78;100.00;50365.84;4796486;29;20048;-74
2021/10/02 04:51:35;;;;;;;13.82;2.22;;;;;;;-149.78;100.00;50354.09;4841237;29;20479;-74
2021/10/02 04:54:00;;;;;;;10.68;2.17;;;;;;;-149.78;100.00;50371.69;4820583;29;20060;-74
2021/10/02 04:56:27;;;;;;;11.93;2.10;;;;;;;-149.78;100.00;50361.91;4820137;29;20053;-74
2021/10/02 04:58:53;;;;;;;7.97;2.10;;;;;;;-149.78;100.00;50377.56;4843978;29;20441;-74
2021/10/02 05:01:18;;;;;;;13.88;2.50;;;;;;;-149.78;100.00;50377.56;4826734;29;20049;-74
2021/10/02 05:03:44;;;;;;;12.77;2.72;;;;;;;-149.78;100.00;50397.13;4833491;29;20037;-74
2021/10/02 05:06:10;;;;;;;8.00;2.40;;;;;;;-149.78;100.00;50342.38;4838847;29;20037;-73
2021/10/02 05:08:37;;;;;;;6.40;2.30;;;;;;;-149.78;100.00;50369.75;4830813;29;20070;-73
2021/10/02 05:11:03;;;;;;;16.95;3.47;;;;;;;-149.78;100.00;50397.13;4842032;29;20086;-73
2021/10/02 05:13:32;;;;;;;11.73;2.28;;;;;;;-149.78;100.00;50361.91;4822863;29;20042;-73
2021/10/02 05:15:58;;;;;;;11.00;2.30;;;;;;;-149.78;100.00;50389.31;4821340;29;20045;-73
2021/10/02 05:18:25;;;;;;;14.30;2.78;;;;;;;-149.78;100.00;50377.56;4840889;29;20038;-73
2021/10/02 05:20:51;;;;;;;9.80;2.45;;;;;;;-149.78;100.00;50399.09;4838059;29;20125;-73
2021/10/02 05:23:17;;;;;;;8.00;2.67;;;;;;;-149.78;100.00;50393.22;4843362;29;20058;-73
2021/10/02 05:25:43;;;;;;;14.10;3.13;;;;;;;-149.78;100.00;50377.56;4825705;29;20044;-73
2021/10/02 05:28:09;;;;;;;8.80;2.90;;;;;;;-149.78;100.00;50377.56;4823477;29;20034;-73
2021/10/02 05:30:34;;;;;;;8.82;2.38;;;;;;;-149.78;100.00;50369.75;4809078;29;20039;-73
2021/10/02 05:33:03;;;;;;;11.50;2.38;;;;;;;-149.78;100.00;50416.69;4826686;29;20328;-73
2021/10/02 05:35:30;;;;;;;15.88;4.05;;;;;;;-149.78;100.00;50361.91;4842439;29;20061;-73
2021/10/02 05:37:55;;;;;;;11.55;2.35;;;;;;;-149.78;100.00;50346.28;4808006;29;20046;-73
2021/10/02 05:40:21;;;;;;;8.20;2.65;;;;;;;-149.78;100.00;50393.22;4831124;29;20038;-73
2021/10/02 05:42:47;;;;;;;9.07;2.50;;;;;;;-149.78;100.00;50373.66;4827651;29;20048;-73
2021/10/02 05:45:12;;;;;;;11.35;2.45;;;;;;;-149.78;100.00;50373.66;4828643;29;20042;-72
2021/10/02 05:47:38;;;;;;;6.55;2.15;;;;;;;-149.78;100.00;50393.22;4829792;29;20038;-73
2021/10/02 05:50:04;;;;;;;6.47;2.30;;;;;;;-149.78;100.00;50359.97;4828144;29;20090;-73
2021/10/02 05:52:30;;;;;;;9.15;1.90;;;;;;;-149.78;100.00;50389.31;4828959;29;20038;-72
2021/10/02 05:54:56;;;;;;;13.02;2.25;;;;;;;-149.78;100.00;50379.53;4819579;29;20440;-74
2021/10/02 05:57:22;;;;;;;12.45;2.17;;;;;;;-149.78;100.00;50399.09;4810707;29;20121;-73
2021/10/02 05:59:48;;;;;;;7.65;1.75;;;;;;;-149.78;100.00;50383.44;4833562;29;20062;-70
2021/10/02 06:02:14;;;;;;;13.35;3.15;;;;;;;-149.78;100.00;50354.09;4836839;29;20042;-72
2021/10/02 06:04:39;;;;;;;12.40;2.22;;;;;;;-149.78;100.00;50365.84;4827399;29;20057;-73
2021/10/02 06:07:05;;;;;;;11.13;1.70;;;;;;;-149.78;100.00;50404.94;4810623;29;20065;-74
2021/10/02 06:09:31;;;;;;;10.90;2.00;;;;;;;-149.78;100.00;50377.56;4824950;29;20498;-71
2021/10/02 06:11:57;;;;;;;7.20;1.75;;;;;;;-149.78;100.00;50389.31;4829361;29;20498;-70
2021/10/02 06:14:22;;;;;;;7.22;1.42;;;;;;;-149.78;100.00;50352.16;4806920;29;20038;-70
2021/10/02 06:16:48;;;;;;;8.45;1.73;;;;;;;-149.78;100.00;50350.19;4824027;29;20357;-70
2021/10/02 06:19:15;;;;;;;7.30;1.70;;;;;;;-149.78;100.00;50342.38;4826055;29;20081;-71
2021/10/02 06:21:41;;;;;;;7.68;2.28;;;;;;;-149.78;100.00;50358.00;4809517;29;20496;-71
2021/10/02 06:24:06;;;;;;;4.30;1.60;;;;;;;-149.78;100.00;50397.13;4827042;29;20054;-70
2021/10/02 06:26:38;;;;;;;10.38;2.17;;;;;;;-149.78;100.00;50389.31;4826689;29;20066;-70
2021/10/02 06:29:05;;;;;;;9.52;1.83;;;;;;;-149.78;100.00;50369.75;4813160;29;20045;-71
2021/10/02 06:31:31;;;;;;;6.85;1.45;;;;;;;-149.78;100.00;50389.31;4827856;29;20121;-73
2021/10/02 06:33:57;;;;;;;4.38;1.50;;;;;;;-149.78;100.00;50440.16;4815014;29;20034;-72
2021/10/02 06:36:22;;;;;;;7.68;1.40;;;;;;;-149.78;100.00;50387.34;4796542;29;20034;-72
2021/10/02 06:38:48;;;;;;;11.65;1.73;;;;;;;-149.78;100.00;50389.31;4826332;29;20399;-72
2021/10/02 06:41:14;;;;;;;6.57;1.65;;;;;;;-149.78;100.00;50359.97;4827063;29;20475;-72
2021/10/02 06:43:40;;;;;;;13.07;1.80;;;;;;;-149.78;100.00;50401.03;4814925;29;20070;-74
2021/10/02 06:46:05;;;;;;;8.63;2.00;;;;;;;-149.78;100.00;50348.22;4811589;29;20079;-74
2021/10/02 06:48:32;;;;;;;7.40;1.90;;;;;;;-149.78;100.00;50387.34;4824156;29;20371;-73
2021/10/02 06:50:58;;;;;;;11.40;1.85;;;;;;;-149.78;100.00;50391.25;4810252;29;20038;-73
2021/10/02 06:53:24;;;;;;;7.63;1.77;;;;;;;-149.78;100.00;50361.91;4829200;29;20109;-73
2021/10/02 06:55:50;;;;;;;10.70;1.67;;;;;;;-149.78;100.00;50377.56;4798553;29;20074;-73
2021/10/02 06:58:15;;;;;;;8.60;1.73;;;;;;;-149.78;100.00;50373.66;4826959;29;20089;-75
2021/10/02 07:00:41;;;;;;;6.65;1.40;;;;;;;-149.78;100.00;50385.38;4827667;29;20027;-71
2021/10/02 07:03:07;;;;;;;7.63;1.83;;;;;;;-149.78;100.00;50410.81;4793586;29;20498;-71
2021/10/02 07:05:33;;;;;;;7.68;1.67;;;;;;;-149.78;100.00;50369.75;4828982;29;20054;-72
2021/10/02 07:07:59;;;;;;;10.10;1.60;;;;;;;-149.78;100.00;50377.56;4813120;29;20076;-68
2021/10/02 07:10:25;;;;;;;5.00;1.75;;;;;;;-149.78;100.00;50322.81;4814681;29;20062;-73
2021/10/02 07:12:53;;;;;;;8.38;2.28;;;;;;;-149.78;100.00;50373.66;4827532;29;20564;-73
2021/10/02 07:15:19;;;;;;;7.28;2.30;;;;;;;-149.78;100.00;50377.56;4833681;29;20022;-73
2021/10/02 07:17:45;;;;;;;9.20;2.50;;;;;;;-149.78;100.00;50397.13;4826587;29;20026;-72
2021/10/02 07:20:12;;;;;;;13.00;2.35;;;;;;;-149.78;100.00;50397.13;4822475;29;20103;-72
2021/10/02 07:22:39;;;;;;;16.38;3.20;;;;;;;-149.78;100.00;50385.38;4826645;29;20142;-74
2021/10/02 07:25:08;;;;;;;6.97;2.10;;;;;;;-149.78;100.00;50369.75;4831803;29;20038;-73
2021/10/02 07:27:34;;;;;;;13.85;2.90;;;;;;;-149.78;100.00;50354.09;4828709;29;20392;-74
2021/10/02 07:30:00;;;;;;;11.27;2.50;;;;;;;-149.78;100.00;50358.00;4798773;29;20095;-74
2021/10/02 07:32:25;;;;;;;8.23;2.47;;;;;;;-149.78;100.00;50342.38;4832250;29;20069;-73
2021/10/02 07:34:52;;;;;;;10.23;2.70;;;;;;;-149.78;100.00;50342.38;4827121;29;20133;-73
2021/10/02 07:37:18;;;;;;;14.40;3.03;;;;;;;-149.78;100.00;50381.47;4826254;29;20045;-73
2021/10/02 07:39:43;;;;;;;15.07;2.25;;;;;;;-149.78;100.00;50424.50;4826510;29;20045;-73
2021/10/02 07:42:12;;;;;;;12.85;2.95;;;;;;;-149.78;100.00;50387.34;4813289;29;20475;-74
2021/10/02 07:44:38;;;;;;;7.15;2.40;;;;;;;-149.78;100.00;50369.75;4830061;29;20066;-72
2021/10/02 07:47:05;;;;;;;12.73;2.53;;;;;;;-149.78;100.00;50326.72;4813655;29;20077;-71
2021/10/02 07:49:34;;;;;;;14.32;3.10;;;;;;;-149.78;100.00;50350.19;4823451;29;20523;-72
2021/10/02 07:52:00;;;;;;;14.65;2.53;;;;;;;-149.78;100.00;50322.81;4808251;29;20038;-75
2021/10/02 07:54:26;;;;;;;18.65;3.03;;;;;;;-149.78;100.00;50371.69;4808966;29;20042;-72
2021/10/02 07:56:54;;;;;;;8.60;2.42;;;;;;;-149.78;100.00;50401.03;4825863;29;20046;-73
2021/10/02 07:59:19;;;;;;;7.20;2.25;;;;;;;-149.78;100.00;50359.97;4822904;29;20034;-72
2021/10/02 08:01:45;;;;;;;6.80;2.00;;;;;;;-149.78;100.00;50350.19;4826238;29;20057;-72
2021/10/02 08:04:11;;;;;;;9.23;1.90;;;;;;;-149.78;100.00;50387.34;4823775;29;20171;-72
2021/10/02 08:06:37;;;;;;;6.50;1.50;;;;;;;-149.78;100.00;50365.84;4820001;29;20034;-72
2021/10/02 08:09:05;;;;;;;7.85;1.80;;;;;;;-149.78;100.00;50358.00;4829818;29;20034;-72
2021/10/02 08:11:31;;;;;;;7.82;1.65;;;;;;;-149.78;100.00;50375.63;4828141;29;20038;-71
2021/10/02 08:13:57;;;;;;;9.02;1.95;;;;;;;-149.78;100.00;50361.91;4831822;29;20026;-72
2021/10/02 08:16:28;;;;;;;7.55;1.90;;;;;;;-149.78;100.00;50365.84;4828547;29;20054;-71
2021/10/02 08:18:59;;;;;;;9.32;1.67;;;;;;;-149.78;100.00;50361.91;4834964;29;20145;-72
2021/10/02 08:21:27;;;;;;;9.80;1.38;;;;;;;-149.78;100.00;50330.63;4830240;29;20034;-72
2021/10/02 08:23:53;;;;;;;7.85;1.70;;;;;;;-149.78;100.00;50403.00;4826819;29;20083;-71
2021/10/02 08:26:19;;;;;;;10.73;1.60;;;;;;;-149.78;100.00;50358.00;4835496;29;20034;-72
2021/10/02 08:28:47;;;;;;;9.60;1.67;;;;;;;-149.78;100.00;50375.63;4816257;29;20102;-72
2021/10/02 08:31:19;;;;;;;11.85;2.53;;;;;;;-149.78;100.00;50381.47;4817688;29;20468;-72
2021/10/02 08:33:45;;;;;;;6.50;1.40;;;;;;;-149.78;100.00;50342.38;4832034;29;20030;-71
2021/10/02 08:36:11;;;;;;;3.53;1.02;;;;;;;-149.78;100.00;50373.66;4827359;29;20045;-71
2021/10/02 08:38:37;;;;;;;7.85;1.83;;;;;;;-149.78;100.00;50326.72;4826852;29;20046;-71
2021/10/02 08:41:06;;;;;;;8.18;1.48;;;;;;;-149.78;100.00;50358.00;4827481;29;20044;-70
2021/10/02 08:43:33;;;;;;;4.68;1.40;;;;;;;-149.78;100.00;50373.66;4829507;29;20108;-71
2021/10/02 08:46:01;;;;;;;9.40;1.58;;;;;;;-149.78;100.00;50365.84;4832939;29;20061;-71
2021/10/02 08:48:27;;;;;;;25.67;3.55;;;;;;;-149.78;100.00;50365.84;4830812;29;20205;-70
2021/10/02 08:50:56;;;;;;;8.05;1.73;;;;;;;-149.78;100.00;50359.97;4826890;29;20084;-72
2021/10/02 08:53:29;;;;;;;6.93;1.80;;;;;;;-149.78;100.00;50358.00;4829782;29;20042;-70
2021/10/02 08:55:55;;;;;;;;;;;;;;;-149.78;100.00;50350.19;4836691;29;21905;-70
2021/10/02 08:58:23;;;;;;;8.68;2.03;;;;;;;-149.78;100.00;50358.00;4810802;29;19984;-72
2021/10/02 09:00:49;;;;;;;11.32;2.88;;;;;;;-149.78;100.00;50373.66;4815050;29;20127;-70
2021/10/02 09:03:15;;;;;;;7.40;1.75;;;;;;;-149.78;100.00;50326.72;4832001;29;20118;-70
2021/10/02 09:05:41;;;;;;;9.88;1.92;;;;;;;-149.78;100.00;50373.66;4825482;29;20525;-70
2021/10/02 09:08:08;;;;;;;8.48;1.80;;;;;;;-149.78;100.00;50381.47;4829995;29;20046;-70
2021/10/02 09:10:35;;;;;;;8.43;1.65;;;;;;;-149.78;100.00;50354.09;4811801;29;20042;-71
2021/10/02 09:13:02;;;;;;;7.40;1.98;;;;;;;-149.78;100.00;50350.19;4829532;29;20133;-72
2021/10/02 09:15:28;;;;;;;9.25;2.10;;;;;;;-149.78;100.00;50342.38;4828245;29;20045;-73
2021/10/02 09:17:56;;;;;;;15.60;1.92;;;;;;;-149.78;100.00;50346.28;4797071;29;20469;-73
2021/10/02 09:20:23;;;;;;;8.43;1.60;;;;;;;-149.78;100.00;50311.06;4816518;29;20035;-74
2021/10/02 09:23:03;;;;;;;7.68;1.80;;;;;;;-149.78;100.00;50322.81;4832543;29;20048;-72
2021/10/02 09:25:31;;;;;;;6.80;1.67;;;;;;;-149.78;100.00;50365.84;4831061;29;20170;-71
2021/10/02 09:28:01;;;;;;;8.65;1.75;;;;;;;-149.78;100.00;50346.28;4828951;29;20031;-75
2021/10/02 09:30:27;;;;;;;9.80;1.95;;;;;;;-149.78;100.00;50313.03;4831543;29;20076;-72
2021/10/02 09:33:23;;;;;;;9.35;1.40;;;;;;;-149.78;100.00;50365.84;4814185;29;20066;-73
2021/10/02 09:35:51;;;;;;;6.28;1.63;;;;;;;-149.78;100.00;50318.91;4831132;29;20038;-71
2021/10/02 09:38:20;;;;;;;5.43;1.70;;;;;;;-149.78;100.00;50322.81;4815714;29;20395;-71
2021/10/02 09:41:00;;;;;;;7.72;2.25;;;;;;;-149.78;100.00;50330.63;4842871;29;20030;-72
2021/10/02 09:43:28;;;;;;;7.85;1.55;;;;;;;-149.78;100.00;50342.38;4825019;29;20041;-74
2021/10/02 09:45:54;;;;;;;9.57;1.55;;;;;;;-149.78;100.00;50324.75;4831731;29;20041;-73
2021/10/02 09:48:32;;;;;;;6.75;1.48;;;;;;;-149.78;100.00;50354.09;4819909;29;20441;-73
2021/10/02 09:51:03;;;;;;;7.40;1.60;;;;;;;-149.78;100.00;50307.16;4830896;29;20044;-73
2021/10/02 09:53:36;;;;;;;7.43;1.58;;;;;;;-149.78;100.00;50336.50;4814455;29;20436;-73
2021/10/02 09:56:10;;;;;;;7.75;2.10;;;;;;;-149.78;100.00;50307.16;4831327;29;20037;-73
2021/10/02 09:58:38;;;;;;;6.72;1.77;;;;;;;-149.78;100.00;50336.50;4830145;29;20502;-73
2021/10/02 10:01:05;;;;;;;5.93;1.40;;;;;;;-149.78;100.00;50342.38;4826388;29;20409;-73
2021/10/02 10:03:40;;;;;;;11.07;1.40;;;;;;;-149.78;100.00;50295.44;4821531;29;20045;-74
2021/10/02 10:06:16;;;;;;;8.07;1.45;;;;;;;-149.78;100.00;50334.53;4838861;29;20546;-73
2021/10/02 10:08:41;;;;;;;7.00;1.67;;;;;;;-149.78;100.00;50338.44;4832150;29;20041;-73
2021/10/02 10:11:10;;;;;;;5.30;1.40;;;;;;;-149.78;100.00;50338.44;4831536;29;20052;-74
2021/10/02 10:13:36;;;;;;;6.07;1.20;;;;;;;-149.78;100.00;50313.03;4840119;29;20053;-73
2021/10/02 10:16:05;;;;;;;11.07;1.52;;;;;;;-149.78;100.00;50301.28;4841128;29;20402;-75
2021/10/02 10:18:34;;;;;;;8.85;2.10;;;;;;;-149.78;100.00;50377.56;4840201;29;20033;-72
2021/10/02 10:21:04;;;;;;;7.72;2.00;;;;;;;-149.78;100.00;50322.81;4844868;29;20044;-75
2021/10/02 10:23:33;;;;;;;12.65;2.78;;;;;;;-149.78;100.00;50354.09;4834083;29;20368;-73
2021/10/02 10:26:08;;;;;;;6.45;1.70;;;;;;;-149.78;100.00;50348.22;4826147;29;20030;-73
2021/10/02 10:28:38;;;;;;;8.40;1.88;;;;;;;-149.78;100.00;50342.38;4832873;29;20490;-73
2021/10/02 10:31:13;;;;;;;9.13;1.92;;;;;;;-149.78;100.00;50326.72;4832714;29;20037;-73
2021/10/02 10:33:40;;;;;;;8.77;1.60;;;;;;;-149.78;100.00;50348.22;4840134;29;20038;-73
2021/10/02 10:36:07;;;;;;;10.25;1.88;;;;;;;-149.78;100.00;50361.91;4835389;29;20386;-72
2021/10/02 10:38:35;;;;;;;12.38;2.28;;;;;;;-149.78;100.00;50334.53;4829060;29;20090;-69
2021/10/02 10:41:03;;;;;;;6.22;1.80;;;;;;;-149.78;100.00;50334.53;4819986;29;20038;-73
2021/10/02 10:43:34;;;;;;;7.82;2.08;;;;;;;-149.78;100.00;50342.38;4826558;29;20356;-72
2021/10/02 10:46:05;;;;;;;12.20;2.10;;;;;;;-149.78;100.00;50365.84;4834424;29;20041;-72
2021/10/02 10:48:31;;;;;;;12.80;1.98;;;;;;;-149.78;100.00;50361.91;4830489;29;20038;-73
2021/10/02 10:51:05;;;;;;;7.65;1.70;;;;;;;-149.78;100.00;50359.97;4838575;29;20463;-71
2021/10/02 10:53:41;;;;;;;8.30;1.83;;;;;;;-149.78;100.00;50356.06;4814177;29;20054;-71
2021/10/02 10:56:13;;;;;;;11.68;2.00;;;;;;;-149.78;100.00;50340.41;4831243;29;20030;-72
2021/10/02 10:58:39;;;;;;;13.07;2.08;;;;;;;-149.78;100.00;50385.38;4832476;29;20034;-72
2021/10/02 11:01:09;;;;;;;9.02;2.00;;;;;;;-149.78;100.00;50381.47;4830009;29;20039;-72
2021/10/02 11:03:42;;;;;;;10.05;2.00;;;;;;;-149.78;100.00;50344.31;4830776;29;20126;-70
2021/10/02 11:06:10;;;;;;;8.57;2.10;;;;;;;-149.78;100.00;50314.97;4828293;29;20033;-72
2021/10/02 11:08:58;;;;;;;10.77;1.95;;;;;;;-149.78;100.00;50361.91;4829274;29;20046;-73
2021/10/02 11:11:51;;;;;;;6.63;1.73;;;;;;;-149.78;100.00;50356.06;4814286;29;20126;-72
2021/10/02 11:14:19;;;;;;;8.65;2.08;;;;;;;-149.78;100.00;50328.69;4830486;29;20045;-72
2021/10/02 11:16:47;;;;;;;9.95;2.00;;;;;;;-149.78;100.00;50381.47;4806630;29;20079;-72
2021/10/02 11:19:39;;;;;;;11.05;2.15;;;;;;;-149.78;100.00;50381.47;4823662;29;20077;-71
2021/10/02 11:22:35;;;;;;;8.15;2.10;;;;;;;-149.78;100.00;50369.75;4821820;29;20049;-72
2021/10/02 11:25:01;;;;;;;9.25;1.90;;;;;;;-149.78;100.00;50369.75;4821320;29;20042;-71
2021/10/02 11:27:27;;;;;;;10.15;2.67;;;;;;;-149.78;100.00;50338.44;4836767;29;20046;-73
2021/10/02 11:29:53;;;;;;;8.25;1.73;;;;;;;-149.78;100.00;50361.91;4836276;29;20103;-75
2021/10/02 11:32:27;;;;;;;9.43;2.38;;;;;;;-149.78;100.00;50356.06;4823983;29;20050;-74
2021/10/02 11:35:13;;;;;;;9.30;2.47;;;;;;;-149.78;100.00;50361.91;4823764;29;20034;-74
2021/10/02 11:37:55;;;;;;;8.93;2.35;;;;;;;-149.78;100.00;50369.75;4831651;29;20374;-71
2021/10/02 11:40:36;;;;;;;19.98;2.60;;;;;;;-149.78;100.00;50385.38;4820570;29;20037;-74
2021/10/02 11:43:17;;;;;;;7.00;2.08;;;;;;;-149.78;100.00;50365.84;4840955;29;20041;-73
2021/10/02 11:45:46;;;;;;;9.63;2.08;;;;;;;-149.78;100.00;50338.44;4825281;29;20045;-73
2021/10/02 11:48:17;;;;;;;7.30;2.38;;;;;;;-149.78;100.00;50350.19;4830631;29;20041;-74
2021/10/02 11:50:45;;;;;;;13.65;2.70;;;;;;;-149.78;100.00;50365.84;4832999;29;20125;-74
2021/10/02 11:53:16;;;;;;;9.65;2.47;;;;;;;-149.78;100.00;50381.47;4844277;29;20484;-71
2021/10/02 11:55:41;;;;;;;11.57;2.72;;;;;;;-149.78;100.00;50326.72;4838817;29;20038;-74
2021/10/02 11:58:07;;;;;;;8.70;2.25;;;;;;;-149.78;100.00;50365.84;4826809;29;20451;-72
2021/10/02 12:00:50;;;;;;;10.20;2.25;;;;;;;-149.78;100.00;50369.75;4823651;29;20034;-72
2021/10/02 12:03:22;;;;;;;13.07;2.60;;;;;;;-149.78;100.00;50377.56;4834999;29;20501;-71
2021/10/02 12:05:49;;;;;;;7.03;2.35;;;;;;;-149.78;100.00;50342.38;4842971;29;20486;-71
2021/10/02 12:08:16;;;;;;;18.17;2.97;;;;;;;-149.78;100.00;50373.66;4844038;29;20041;-71